Time;durP1;ratioP1;P1;durP2;ratioP2;P2;SDS_P1;SDS_P2;PMS_P1;PMS_P2;Temp;Humidity;BMP_temperature;BMP_pressure;BME280_temperature;BME280_humidity;BME280_pressure;Samples;Min_cycle;Max_cycle;Signal;HPM_P1;HPM_P2
2024/01/20 00:01:53;;;;;;;15.88;5.22;;;2.80;99.90;;;;;;4988223;28;20034;-20
2024/01/20 00:04:19;;;;;;;16.50;5.53;;;2.80;99.90;;;;;;4992200;28;20060;-20
2024/01/20 00:06:44;;;;;;;14.77;5.00;;;2.80;99.90;;;;;;4992222;28;20384;-20
2024/01/20 00:09:10;;;;;;;16.73;5.63;;;2.80;99.90;;;;;;4991920;28;20042;-22
2024/01/20 00:11:38;;;;;;;15.63;5.13;;;2.80;99.90;;;;;;4992661;28;20092;-21
2024/01/20 00:14:04;;;;;;;16.27;5.00;;;2.70;99.90;;;;;;4987979;28;20030;-22
2024/01/20 00:16:29;;;;;;;15.00;4.93;;;2.80;99.90;;;;;;4975392;28;20783;-21
2024/01/20 00:18:55;;;;;;;14.30;5.10;;;2.70;99.90;;;;;;4991684;28;20042;-20
2024/01/20 00:21:21;;;;;;;18.20;6.50;;;2.80;99.90;;;;;;4976060;28;20362;-22
2024/01/20 00:23:48;;;;;;;15.73;5.35;;;2.70;99.90;;;;;;4976813;28;20046;-20
2024/01/20 00:26:14;;;;;;;15.20;5.75;;;2.70;99.90;;;;;;4990884;28;20051;-20
2024/01/20 00:28:40;;;;;;;12.57;4.33;;;2.70;99.90;;;;;;4993539;28;20226;-22
2024/01/20 00:31:06;;;;;;;10.48;3.25;;;2.70;99.90;;;;;;4980690;28;20041;-20
2024/01/20 00:33:32;;;;;;;20.07;6.47;;;2.70;99.90;;;;;;4981180;28;20049;-22
2024/01/20 00:35:58;;;;;;;15.77;5.50;;;2.60;99.90;;;;;;4978898;28;20037;-22
2024/01/20 00:38:25;;;;;;;21.50;7.22;;;2.70;99.90;;;;;;4991762;28;20177;-20
2024/01/20 00:40:51;;;;;;;14.18;4.50;;;2.60;99.90;;;;;;4991370;28;20022;-20
2024/01/20 00:43:17;;;;;;;13.50;5.07;;;2.60;99.90;;;;;;4993047;28;20608;-21
2024/01/20 00:45:42;;;;;;;12.27;4.78;;;2.60;99.90;;;;;;4992104;28;20398;-20
2024/01/20 00:48:08;;;;;;;12.30;4.40;;;2.60;99.90;;;;;;4993211;28;20038;-22
2024/01/20 00:50:34;;;;;;;9.77;3.90;;;2.60;99.90;;;;;;4995655;28;20046;-20
2024/01/20 00:53:00;;;;;;;13.93;5.10;;;2.60;99.90;;;;;;4995147;28;20098;-20
2024/01/20 00:55:25;;;;;;;18.20;6.55;;;2.60;99.90;;;;;;4996821;28;20065;-20
2024/01/20 00:57:51;;;;;;;18.07;5.90;;;2.60;99.90;;;;;;4980821;28;20092;-17
2024/01/20 01:00:17;;;;;;;17.27;5.50;;;2.60;99.90;;;;;;4993966;28;20081;-19
2024/01/20 01:02:42;;;;;;;14.63;6.07;;;2.60;99.90;;;;;;4993288;28;20062;-18
2024/01/20 01:05:08;;;;;;;11.93;4.77;;;2.60;99.90;;;;;;4991537;28;20035;-19
2024/01/20 01:07:35;;;;;;;12.23;5.00;;;2.60;99.90;;;;;;4991516;28;20050;-19
2024/01/20 01:10:03;;;;;;;12.73;4.65;;;2.60;99.90;;;;;;4990327;28;20030;-19
2024/01/20 01:12:29;;;;;;;18.13;6.13;;;2.60;99.90;;;;;;4991997;28;20026;-18
2024/01/20 01:14:55;;;;;;;15.05;5.13;;;2.60;99.90;;;;;;4992882;28;20050;-17
2024/01/20 01:17:21;;;;;;;18.92;6.32;;;4.70;99.90;;;;;;4994860;28;20027;-18
2024/01/20 01:19:47;;;;;;;15.27;5.32;;;2.60;99.90;;;;;;4975039;28;20105;-19
2024/01/20 01:22:13;;;;;;;16.90;5.63;;;2.60;99.90;;;;;;4990795;28;20046;-18
2024/01/20 01:24:38;;;;;;;19.63;6.25;;;2.60;99.90;;;;;;4991666;28;20065;-19
2024/01/20 01:27:05;;;;;;;15.07;4.63;;;2.60;99.90;;;;;;4990584;28;20038;-18
2024/01/20 01:29:31;;;;;;;13.17;4.80;;;2.50;99.90;;;;;;4989769;28;20045;-19
2024/01/20 01:31:56;;;;;;;20.70;6.82;;;2.50;99.90;;;;;;4994596;28;20049;-20
2024/01/20 01:34:22;;;;;;;15.90;6.00;;;2.50;99.90;;;;;;4987549;28;20026;-19
2024/01/20 01:36:48;;;;;;;21.40;6.93;;;2.50;99.90;;;;;;4995976;28;20568;-19
2024/01/20 01:39:16;;;;;;;17.03;6.10;;;2.50;99.90;;;;;;4997872;28;20030;-18
2024/01/20 01:41:42;;;;;;;18.30;5.18;;;2.50;99.90;;;;;;4995726;28;20035;-19
2024/01/20 01:44:08;;;;;;;14.48;4.82;;;0.30;99.90;;;;;;4981014;28;20297;-18
2024/01/20 01:46:34;;;;;;;16.40;5.23;;;2.50;99.90;;;;;;4995166;28;20054;-18
2024/01/20 01:49:00;;;;;;;15.50;6.43;;;2.50;99.90;;;;;;4992917;28;20038;-19
2024/01/20 01:51:27;;;;;;;14.40;5.25;;;2.50;99.90;;;;;;4991941;28;20106;-18
2024/01/20 01:53:53;;;;;;;20.42;6.68;;;2.50;99.90;;;;;;4977591;28;20037;-18
2024/01/20 01:56:20;;;;;;;18.73;6.17;;;2.50;99.90;;;;;;4992613;28;20058;-19
2024/01/20 01:58:46;;;;;;;21.83;6.43;;;2.50;99.90;;;;;;4990493;28;20026;-19
2024/01/20 02:01:12;;;;;;;24.92;7.70;;;2.50;99.90;;;;;;4994825;28;20234;-20
2024/01/20 02:03:39;;;;;;;16.27;5.68;;;2.50;99.90;;;;;;4995704;28;20041;-19
2024/01/20 02:06:06;;;;;;;13.17;4.37;;;2.40;99.90;;;;;;4991889;28;20042;-19
2024/01/20 02:08:31;;;;;;;24.27;8.20;;;2.50;99.90;;;;;;4972161;28;20140;-21
2024/01/20 02:10:57;;;;;;;16.48;5.70;;;2.50;99.90;;;;;;4982503;28;20338;-21
2024/01/20 02:13:23;;;;;;;21.27;7.55;;;0.30;99.90;;;;;;4996860;28;20053;-20
2024/01/20 02:15:49;;;;;;;20.00;7.37;;;2.50;99.90;;;;;;4996037;28;20046;-20
2024/01/20 02:18:15;;;;;;;16.85;5.68;;;2.40;99.90;;;;;;4982484;28;20346;-21
2024/01/20 02:20:41;;;;;;;16.58;5.50;;;2.50;99.90;;;;;;4991842;28;20066;-21
2024/01/20 02:23:06;;;;;;;17.60;5.73;;;2.40;99.90;;;;;;4989242;28;20323;-20
2024/01/20 02:25:32;;;;;;;17.20;4.97;;;2.40;99.90;;;;;;4987486;28;20157;-20
2024/01/20 02:27:58;;;;;;;13.82;4.63;;;2.60;99.90;;;;;;4991447;28;20045;-22
2024/01/20 02:30:24;;;;;;;14.60;5.35;;;2.40;99.90;;;;;;4985355;28;20034;-22
2024/01/20 02:32:49;;;;;;;12.27;4.47;;;2.40;99.90;;;;;;4992551;28;20038;-22
2024/01/20 02:35:18;;;;;;;15.13;5.13;;;2.70;99.90;;;;;;4994491;28;20038;-19
2024/01/20 02:37:44;;;;;;;15.38;5.78;;;2.50;99.90;;;;;;4990309;28;20093;-20
2024/01/20 02:40:10;;;;;;;13.60;5.20;;;2.40;99.90;;;;;;4992473;28;20034;-20
2024/01/20 02:42:36;;;;;;;14.73;4.50;;;2.40;99.90;;;;;;4988594;28;20308;-21
2024/01/20 02:45:02;;;;;;;12.00;4.63;;;2.60;99.90;;;;;;4990363;28;20050;-20
2024/01/20 02:47:28;;;;;;;14.85;5.22;;;2.40;99.90;;;;;;4991487;28;20038;-20
2024/01/20 02:49:54;;;;;;;23.27;6.75;;;2.40;99.90;;;;;;4973770;28;20416;-21
2024/01/20 02:52:19;;;;;;;13.70;5.03;;;2.40;99.90;;;;;;4991148;28;20416;-22
2024/01/20 02:54:45;;;;;;;17.85;6.32;;;2.40;99.90;;;;;;4994668;28;20049;-21
2024/01/20 02:57:11;;;;;;;18.17;6.27;;;2.40;99.90;;;;;;4992299;28;20038;-21
2024/01/20 02:59:36;;;;;;;19.95;5.95;;;2.40;99.90;;;;;;4991672;28;20031;-23
2024/01/20 03:02:02;;;;;;;14.30;5.30;;;2.40;99.90;;;;;;4973878;28;20090;-22
2024/01/20 03:04:28;;;;;;;17.58;6.07;;;2.40;99.90;;;;;;4981252;28;20381;-22
2024/01/20 03:06:54;;;;;;;14.30;5.20;;;2.40;99.90;;;;;;4990707;28;20247;-21
2024/01/20 03:09:20;;;;;;;16.33;5.30;;;2.40;99.90;;;;;;4989219;28;20049;-21
2024/01/20 03:11:45;;;;;;;15.40;5.78;;;2.40;99.90;;;;;;4987892;28;20059;-20
2024/01/20 03:14:12;;;;;;;15.07;5.50;;;2.40;99.90;;;;;;4995535;28;20069;-20
2024/01/20 03:16:38;;;;;;;13.98;5.22;;;2.40;99.90;;;;;;4989399;28;20050;-20
2024/01/20 03:19:04;;;;;;;17.63;6.10;;;2.40;99.90;;;;;;4978532;28;20041;-18
2024/01/20 03:21:30;;;;;;;10.38;4.03;;;2.40;99.90;;;;;;4983435;28;20126;-19
2024/01/20 03:23:56;;;;;;;11.60;4.40;;;2.40;99.90;;;;;;4967809;28;20043;-19
2024/01/20 03:26:22;;;;;;;16.27;5.70;;;2.30;99.90;;;;;;4971045;28;20039;-19
2024/01/20 03:28:48;;;;;;;14.23;5.70;;;2.40;99.90;;;;;;4972120;28;20031;-19
2024/01/20 03:31:14;;;;;;;12.60;4.70;;;2.40;99.90;;;;;;4959186;28;20030;-18
2024/01/20 03:33:40;;;;;;;12.48;4.85;;;2.40;99.90;;;;;;4959506;28;20347;-19
2024/01/20 03:36:06;;;;;;;14.07;5.73;;;2.30;99.90;;;;;;4970798;28;20528;-18
2024/01/20 03:38:31;;;;;;;13.82;5.28;;;2.30;99.90;;;;;;4969936;28;20541;-18
2024/01/20 03:40:57;;;;;;;15.40;5.40;;;2.30;99.90;;;;;;4973411;28;20123;-19
2024/01/20 03:43:23;;;;;;;13.53;4.80;;;2.30;99.90;;;;;;4975587;28;20226;-19
2024/01/20 03:45:49;;;;;;;12.30;4.00;;;2.30;99.90;;;;;;4970754;28;20023;-19
2024/01/20 03:48:15;;;;;;;12.48;5.05;;;2.30;99.90;;;;;;4970741;28;20209;-21
2024/01/20 03:50:41;;;;;;;13.17;4.47;;;2.30;99.90;;;;;;4971596;28;20045;-19
2024/01/20 03:53:06;;;;;;;9.45;3.97;;;2.30;99.90;;;;;;4970406;28;20058;-19
2024/01/20 03:55:33;;;;;;;10.93;3.83;;;2.30;99.90;;;;;;4971659;28;20030;-20
2024/01/20 03:57:58;;;;;;;11.50;4.38;;;2.30;99.90;;;;;;4959927;28;20046;-18
2024/01/20 04:00:24;;;;;;;12.93;5.27;;;2.30;99.90;;;;;;4971664;28;20058;-18
2024/01/20 04:02:50;;;;;;;13.82;5.72;;;2.30;99.90;;;;;;4952434;28;20034;-18
2024/01/20 04:05:16;;;;;;;10.02;4.13;;;2.30;99.90;;;;;;4977880;28;20098;-19
2024/01/20 04:07:42;;;;;;;11.97;4.30;;;2.30;99.90;;;;;;4972219;28;20049;-18
2024/01/20 04:10:09;;;;;;;17.17;6.65;;;2.30;99.90;;;;;;4954557;28;20035;-20
2024/01/20 04:12:37;;;;;;;13.60;4.43;;;2.30;99.90;;;;;;4970625;28;20050;-19
2024/01/20 04:15:03;;;;;;;13.02;4.90;;;2.30;99.90;;;;;;4952257;28;20049;-28
2024/01/20 04:17:29;;;;;;;12.05;4.55;;;2.30;99.90;;;;;;4971115;28;20043;-20
2024/01/20 04:19:55;;;;;;;10.83;4.53;;;2.30;99.90;;;;;;4970929;28;20090;-19
2024/01/20 04:22:21;;;;;;;13.93;5.20;;;2.30;99.90;;;;;;4972063;28;20051;-19
2024/01/20 04:24:46;;;;;;;13.57;4.40;;;2.50;99.90;;;;;;4970696;28;20155;-20
2024/01/20 04:27:12;;;;;;;11.77;4.33;;;2.40;99.90;;;;;;4968247;28;20346;-18
2024/01/20 04:29:38;;;;;;;19.25;7.00;;;2.30;99.90;;;;;;4973687;28;20074;-18
2024/01/20 04:32:04;;;;;;;15.10;5.83;;;2.30;99.90;;;;;;4968476;28;20354;-18
2024/01/20 04:34:29;;;;;;;11.57;4.55;;;2.30;99.90;;;;;;4972841;28;20042;-19
2024/01/20 04:36:55;;;;;;;16.25;5.38;;;2.30;99.90;;;;;;4985415;28;20319;-18
2024/01/20 04:39:21;;;;;;;17.40;6.40;;;2.30;99.90;;;;;;4970352;28;20043;-19
2024/01/20 04:41:47;;;;;;;13.73;5.72;;;2.30;99.90;;;;;;4975192;28;20145;-21
2024/01/20 04:44:12;;;;;;;15.20;6.93;;;2.30;99.90;;;;;;4975439;28;20226;-21
2024/01/20 04:46:38;;;;;;;11.70;4.45;;;2.20;99.90;;;;;;4968914;28;20027;-22
2024/01/20 04:49:04;;;;;;;8.87;3.37;;;2.40;99.90;;;;;;4973408;28;20038;-21
2024/01/20 04:51:29;;;;;;;11.88;4.72;;;2.30;99.90;;;;;;4970291;28;20259;-20
2024/01/20 04:53:55;;;;;;;11.47;4.13;;;2.20;99.90;;;;;;4970806;28;20049;-21
2024/01/20 04:56:22;;;;;;;14.27;5.38;;;2.20;99.90;;;;;;4954886;28;20080;-22
2024/01/20 04:58:53;;;;;;;14.35;5.63;;;2.20;99.90;;;;;;4982173;28;20197;-20
2024/01/20 05:01:19;;;;;;;13.85;5.35;;;2.40;99.90;;;;;;4985497;28;20050;-22
2024/01/20 05:03:45;;;;;;;11.77;5.10;;;2.30;99.90;;;;;;4970181;28;20046;-22
2024/01/20 05:06:11;;;;;;;11.75;4.57;;;2.20;99.90;;;;;;4952702;28;20030;-24
2024/01/20 05:08:37;;;;;;;11.55;4.53;;;2.20;99.90;;;;;;4972745;28;20039;-21
2024/01/20 05:11:03;;;;;;;11.67;4.40;;;0.60;99.90;;;;;;4969950;28;20343;-21
2024/01/20 05:13:28;;;;;;;13.07;4.82;;;2.30;99.90;;;;;;4959405;28;20035;-21
2024/01/20 05:15:54;;;;;;;16.92;6.05;;;2.30;99.90;;;;;;4974866;28;20235;-21
2024/01/20 05:18:20;;;;;;;12.23;4.70;;;2.30;99.90;;;;;;4974095;28;20512;-20
2024/01/20 05:20:46;;;;;;;12.68;4.72;;;2.40;99.90;;;;;;4982674;28;20035;-22
2024/01/20 05:23:12;;;;;;;12.82;5.15;;;2.30;99.90;;;;;;4976290;28;20069;-20
2024/01/20 05:25:38;;;;;;;16.47;5.43;;;2.30;99.90;;;;;;4993165;28;20345;-20
2024/01/20 05:28:04;;;;;;;15.35;5.80;;;2.30;99.90;;;;;;4995139;28;20085;-24
2024/01/20 05:30:30;;;;;;;16.33;6.13;;;2.30;99.90;;;;;;4993993;28;20583;-20
2024/01/20 05:32:56;;;;;;;17.70;6.03;;;2.30;99.90;;;;;;4978920;28;20038;-21
2024/01/20 05:35:22;;;;;;;14.47;5.57;;;2.30;99.90;;;;;;4994461;28;20034;-21
2024/01/20 05:37:47;;;;;;;15.50;5.57;;;2.30;99.90;;;;;;4991879;28;20136;-20
2024/01/20 05:40:13;;;;;;;15.43;5.57;;;2.40;99.90;;;;;;4992464;28;20521;-21
2024/01/20 05:42:39;;;;;;;12.15;4.85;;;2.30;99.90;;;;;;4985389;28;20034;-22
2024/01/20 05:45:08;;;;;;;14.65;5.60;;;2.20;99.90;;;;;;4975642;28;20054;-22
2024/01/20 05:47:37;;;;;;;15.30;5.55;;;3.50;99.90;;;;;;4990662;28;20046;-21
2024/01/20 05:50:07;;;;;;;20.77;7.00;;;2.30;99.90;;;;;;4990252;28;20045;-20
2024/01/20 05:52:33;;;;;;;19.35;6.60;;;2.20;99.90;;;;;;4993761;28;20188;-19
2024/01/20 05:54:58;;;;;;;14.15;5.07;;;2.20;99.90;;;;;;4971555;28;20068;-19
2024/01/20 05:57:24;;;;;;;15.37;5.07;;;2.30;99.90;;;;;;4993256;28;20030;-18
2024/01/20 05:59:50;;;;;;;17.20;7.00;;;2.30;99.90;;;;;;4996139;28;20524;-18
2024/01/20 06:02:16;;;;;;;15.90;6.57;;;2.30;99.90;;;;;;4992209;28;20057;-19
2024/01/20 06:04:42;;;;;;;17.55;5.55;;;2.20;99.90;;;;;;4976985;28;20700;-19
2024/01/20 06:07:07;;;;;;;16.83;5.67;;;2.20;99.90;;;;;;4975156;28;20050;-20
2024/01/20 06:09:33;;;;;;;16.90;5.75;;;2.20;99.90;;;;;;4995263;28;20074;-19
2024/01/20 06:11:59;;;;;;;16.20;6.00;;;2.20;99.90;;;;;;4997244;28;20034;-18
2024/01/20 06:14:24;;;;;;;16.42;6.65;;;2.20;99.90;;;;;;4992806;28;20109;-18
2024/01/20 06:16:50;;;;;;;17.87;6.60;;;2.20;99.90;;;;;;4998242;28;20030;-19
2024/01/20 06:19:16;;;;;;;13.95;5.60;;;2.20;99.90;;;;;;4989312;28;20035;-19
2024/01/20 06:21:42;;;;;;;13.70;5.05;;;2.20;99.90;;;;;;4982504;28;20101;-19
2024/01/20 06:24:08;;;;;;;12.87;5.27;;;1.50;99.90;;;;;;4995104;28;20042;-18
2024/01/20 06:26:33;;;;;;;15.85;5.03;;;2.20;99.90;;;;;;4992371;28;20038;-19
2024/01/20 06:28:59;;;;;;;13.63;5.47;;;2.20;99.90;;;;;;4993171;28;20030;-18
2024/01/20 06:31:27;;;;;;;11.30;4.70;;;4.40;99.90;;;;;;4994458;28;20040;-18
2024/01/20 06:33:54;;;;;;;12.48;4.70;;;2.20;99.90;;;;;;4992186;28;20058;-19
2024/01/20 06:36:27;;;;;;;12.97;5.43;;;2.30;99.90;;;;;;4991990;28;20031;-20
2024/01/20 06:38:53;;;;;;;13.23;4.75;;;2.30;99.90;;;;;;4990393;28;20215;-18
2024/01/20 06:41:19;;;;;;;13.55;5.40;;;2.30;99.90;;;;;;4992264;28;20041;-18
2024/01/20 06:43:44;;;;;;;13.75;5.45;;;2.30;99.90;;;;;;4980966;28;20047;-20
2024/01/20 06:46:10;;;;;;;18.70;6.63;;;2.30;99.90;;;;;;4994158;28;20353;-20
2024/01/20 06:48:36;;;;;;;13.63;5.28;;;2.30;99.90;;;;;;4987600;28;20038;-18
2024/01/20 06:51:03;;;;;;;15.02;5.53;;;2.20;99.90;;;;;;4991135;28;20287;-18
2024/01/20 06:53:30;;;;;;;15.73;6.03;;;2.20;99.90;;;;;;4993399;28;20027;-17
2024/01/20 06:55:56;;;;;;;11.40;5.05;;;2.20;99.90;;;;;;4991120;28;20081;-19
2024/01/20 06:58:22;;;;;;;17.13;6.07;;;2.20;99.90;;;;;;4986452;28;20045;-18
2024/01/20 07:00:48;;;;;;;12.63;4.95;;;2.20;99.90;;;;;;4988786;28;20073;-19
2024/01/20 07:03:14;;;;;;;18.57;7.67;;;2.20;99.90;;;;;;4992075;28;20046;-19
2024/01/20 07:05:40;;;;;;;17.73;6.33;;;2.20;99.90;;;;;;4990823;28;20815;-19
2024/01/20 07:08:06;;;;;;;16.95;6.10;;;2.20;99.90;;;;;;4991842;28;20038;-18
2024/01/20 07:10:32;;;;;;;16.90;6.00;;;2.20;99.90;;;;;;4988551;28;20034;-18
2024/01/20 07:12:58;;;;;;;16.07;5.90;;;2.10;99.90;;;;;;4993651;28;20346;-19
2024/01/20 07:15:24;;;;;;;16.33;6.20;;;2.20;99.90;;;;;;4990644;28;20101;-19
2024/01/20 07:17:50;;;;;;;22.30;8.38;;;2.10;99.90;;;;;;4990996;28;20030;-18
2024/01/20 07:20:16;;;;;;;17.00;6.63;;;2.10;99.90;;;;;;4971422;28;20319;-18
2024/01/20 07:22:41;;;;;;;21.30;7.50;;;2.10;99.90;;;;;;4972579;28;20243;-19
2024/01/20 07:25:08;;;;;;;20.58;7.65;;;2.10;99.90;;;;;;4957811;28;20402;-18
2024/01/20 07:27:35;;;;;;;24.17;9.37;;;2.20;99.90;;;;;;4977692;28;20066;-20
2024/01/20 07:30:01;;;;;;;18.80;7.30;;;2.10;99.90;;;;;;4979180;28;20027;-18
2024/01/20 07:32:26;;;;;;;25.87;8.30;;;2.20;99.90;;;;;;4958333;28;20097;-19
2024/01/20 07:34:52;;;;;;;26.55;9.80;;;2.10;99.90;;;;;;4976034;28;20049;-20
2024/01/20 07:37:18;;;;;;;21.03;7.57;;;2.20;99.90;;;;;;4976031;28;20046;-18
2024/01/20 07:39:44;;;;;;;22.08;8.20;;;2.20;99.90;;;;;;4975379;28;20094;-18
2024/01/20 07:42:10;;;;;;;15.70;5.93;;;2.20;99.90;;;;;;4955261;28;20046;-20
2024/01/20 07:44:36;;;;;;;17.73;7.03;;;2.20;99.90;;;;;;4976183;28;20080;-19
2024/01/20 07:47:02;;;;;;;17.92;7.72;;;2.10;99.90;;;;;;4975484;28;20147;-20
2024/01/20 07:49:28;;;;;;;11.68;4.97;;;2.20;99.90;;;;;;4977211;28;20056;-18
2024/01/20 07:51:54;;;;;;;14.30;6.00;;;4.40;99.90;;;;;;4955610;28;20042;-19
2024/01/20 07:54:19;;;;;;;18.83;7.05;;;2.10;99.90;;;;;;4955215;28;20209;-19
2024/01/20 07:56:45;;;;;;;11.73;5.43;;;2.50;99.90;;;;;;4977837;28;20267;-19
2024/01/20 07:59:11;;;;;;;19.10;6.77;;;2.10;99.90;;;;;;4960454;28;20041;-19
2024/01/20 08:01:37;;;;;;;11.18;4.90;;;2.20;99.90;;;;;;4974511;28;20102;-19
2024/01/20 08:04:03;;;;;;;13.83;5.47;;;2.20;99.90;;;;;;4975211;28;20051;-23
2024/01/20 08:06:29;;;;;;;17.67;7.43;;;2.20;99.90;;;;;;4974911;28;20196;-19
2024/01/20 08:08:54;;;;;;;20.25;6.15;;;2.20;99.90;;;;;;4976513;28;20085;-21
2024/01/20 08:11:20;;;;;;;14.07;5.57;;;2.20;99.90;;;;;;4975879;28;20278;-21
2024/01/20 08:13:46;;;;;;;14.00;5.18;;;2.20;99.90;;;;;;4974715;28;20201;-21
2024/01/20 08:16:12;;;;;;;18.00;7.17;;;2.20;99.90;;;;;;4958298;28;20308;-20
2024/01/20 08:18:38;;;;;;;15.27;6.32;;;2.30;99.90;;;;;;4977776;28;20047;-20
2024/01/20 08:21:07;;;;;;;13.20;5.43;;;2.30;99.90;;;;;;4981941;28;20039;-20
2024/01/20 08:23:33;;;;;;;16.93;6.10;;;2.30;99.90;;;;;;4991269;28;20272;-20
2024/01/20 08:25:59;;;;;;;16.88;6.38;;;2.40;99.90;;;;;;4989173;28;20268;-21
2024/01/20 08:28:24;;;;;;;14.48;5.95;;;2.30;99.90;;;;;;4992479;28;20034;-19
2024/01/20 08:30:50;;;;;;;15.97;5.73;;;2.40;99.90;;;;;;4986374;28;20245;-20
2024/01/20 08:33:16;;;;;;;12.35;5.00;;;2.40;99.90;;;;;;4988202;28;20409;-20
2024/01/20 08:35:42;;;;;;;15.20;5.63;;;2.40;99.90;;;;;;4990959;28;20040;-22
2024/01/20 08:38:07;;;;;;;16.73;6.38;;;2.40;99.90;;;;;;4990160;28;20046;-20
2024/01/20 08:40:33;;;;;;;17.08;6.95;;;0.30;99.90;;;;;;4989625;28;20026;-21
2024/01/20 08:42:59;;;;;;;14.20;5.60;;;2.40;99.90;;;;;;4991405;28;20054;-21
2024/01/20 08:45:24;;;;;;;13.23;5.03;;;2.40;99.90;;;;;;4990689;28;20042;-21
2024/01/20 08:47:50;;;;;;;10.35;4.03;;;5.10;99.90;;;;;;4992069;28;20439;-20
2024/01/20 08:50:16;;;;;;;16.60;5.93;;;2.40;99.90;;;;;;4995338;28;20018;-21
2024/01/20 08:52:42;;;;;;;12.27;5.32;;;2.40;99.90;;;;;;4993182;28;20318;-20
2024/01/20 08:55:08;;;;;;;11.13;5.20;;;2.40;99.90;;;;;;4991941;28;20034;-21
2024/01/20 08:57:34;;;;;;;10.25;3.88;;;2.40;99.90;;;;;;4993513;28;20026;-21
2024/01/20 09:00:00;;;;;;;12.77;4.97;;;2.40;99.90;;;;;;4979737;28;20102;-20
2024/01/20 09:02:26;;;;;;;11.40;4.00;;;2.40;99.90;;;;;;4990801;28;20026;-23
2024/01/20 09:04:52;;;;;;;12.45;4.50;;;2.50;99.90;;;;;;4974255;28;20043;-21
2024/01/20 09:07:20;;;;;;;13.13;4.73;;;2.50;99.90;;;;;;4994486;28;20345;-21
2024/01/20 09:09:46;;;;;;;9.48;4.05;;;2.50;99.90;;;;;;4992330;28;20109;-21
2024/01/20 09:12:12;;;;;;;8.57;3.42;;;2.50;99.90;;;;;;4992265;28;20038;-20
2024/01/20 09:14:38;;;;;;;9.57;3.97;;;2.50;99.90;;;;;;4993828;28;20038;-21
2024/01/20 09:17:04;;;;;;;8.80;3.78;;;2.60;99.90;;;;;;4978315;28;20225;-20
2024/01/20 09:19:30;;;;;;;12.30;4.32;;;2.60;99.90;;;;;;4990499;28;20274;-19
2024/01/20 09:21:56;;;;;;;8.87;3.83;;;2.60;99.90;;;;;;4957365;28;20369;-20
2024/01/20 09:24:21;;;;;;;13.68;5.05;;;2.60;99.90;;;;;;4986821;28;20255;-19
2024/01/20 09:26:47;;;;;;;9.23;3.83;;;2.60;99.90;;;;;;4996739;28;20215;-19
2024/01/20 09:29:13;;;;;;;12.40;5.45;;;2.60;99.90;;;;;;4994657;28;20190;-22
2024/01/20 09:31:39;;;;;;;9.03;4.23;;;2.70;99.90;;;;;;4993548;28;20230;-22
2024/01/20 09:34:04;;;;;;;13.55;5.20;;;2.70;99.90;;;;;;4981418;28;20302;-20
2024/01/20 09:36:30;;;;;;;10.87;4.77;;;2.00;99.90;;;;;;4994413;28;20273;-20
2024/01/20 09:38:56;;;;;;;11.00;4.15;;;2.70;99.90;;;;;;4991825;28;20061;-22
2024/01/20 09:41:22;;;;;;;13.67;5.03;;;2.70;99.90;;;;;;4989802;28;20249;-23
2024/01/20 09:43:49;;;;;;;9.88;3.95;;;2.80;99.90;;;;;;4989744;28;20046;-22
2024/01/20 09:46:15;;;;;;;8.80;3.58;;;2.80;99.90;;;;;;4990389;28;20041;-20
2024/01/20 09:48:43;;;;;;;9.50;4.72;;;2.80;99.90;;;;;;4991072;28;20284;-20
2024/01/20 09:51:08;;;;;;;11.57;4.85;;;2.90;99.90;;;;;;4993614;28;20243;-21
2024/01/20 09:53:35;;;;;;;12.30;4.53;;;1.10;99.90;;;;;;4992044;28;20497;-22
2024/01/20 09:56:02;;;;;;;13.38;5.68;;;2.90;99.90;;;;;;4995117;28;20042;-22
2024/01/20 09:58:31;;;;;;;9.35;3.45;;;3.00;99.90;;;;;;4992733;28;20034;-21
2024/01/20 10:00:58;;;;;;;9.90;4.25;;;3.00;99.90;;;;;;4990916;28;20073;-20
2024/01/20 10:03:25;;;;;;;11.97;4.77;;;3.10;99.90;;;;;;4991645;28;20054;-21
2024/01/20 10:05:57;;;;;;;11.00;4.82;;;3.10;99.90;;;;;;4990264;28;20034;-20
2024/01/20 10:08:23;;;;;;;10.50;4.30;;;3.20;99.90;;;;;;4990605;28;20037;-20
2024/01/20 10:10:49;;;;;;;8.45;3.63;;;3.20;99.90;;;;;;4991284;28;20039;-22
2024/01/20 10:13:15;;;;;;;9.73;4.00;;;3.20;99.90;;;;;;4973887;28;20064;-21
2024/01/20 10:15:41;;;;;;;9.60;3.88;;;3.20;99.90;;;;;;4979129;28;20050;-20
2024/01/20 10:18:10;;;;;;;9.23;4.53;;;3.80;99.90;;;;;;4993330;28;20074;-20
2024/01/20 10:20:37;;;;;;;10.73;4.25;;;0.40;99.90;;;;;;4994341;28;20038;-21
2024/01/20 10:23:04;;;;;;;10.65;4.20;;;3.20;99.90;;;;;;4986554;28;20030;-22
2024/01/20 10:25:30;;;;;;;12.05;5.32;;;3.20;99.90;;;;;;4992144;28;20042;-21
2024/01/20 10:27:56;;;;;;;10.07;4.35;;;3.20;99.90;;;;;;4974568;28;20072;-22
2024/01/20 10:30:24;;;;;;;11.77;4.87;;;3.20;99.90;;;;;;4993200;28;20042;-22
2024/01/20 10:32:51;;;;;;;9.15;3.65;;;3.20;99.90;;;;;;4973273;28;20035;-20
2024/01/20 10:35:17;;;;;;;11.65;4.80;;;3.20;99.90;;;;;;4992951;28;20042;-21
2024/01/20 10:37:50;;;;;;;9.97;3.97;;;3.20;99.90;;;;;;4992143;28;20223;-19
2024/01/20 10:40:16;;;;;;;10.88;4.32;;;4.10;99.90;;;;;;4975670;28;20218;-20
2024/01/20 10:42:44;;;;;;;13.38;4.63;;;3.20;99.90;;;;;;4971604;28;20033;-22
2024/01/20 10:45:15;;;;;;;8.43;4.00;;;3.20;99.90;;;;;;4975807;28;20026;-20
2024/01/20 10:47:44;;;;;;;11.10;5.05;;;3.20;99.90;;;;;;4992138;28;20211;-22
2024/01/20 10:50:10;;;;;;;10.60;4.23;;;3.20;99.90;;;;;;4991242;28;20053;-20
2024/01/20 10:52:37;;;;;;;9.93;4.45;;;3.20;99.90;;;;;;4991183;28;20122;-21
2024/01/20 10:55:05;;;;;;;11.25;4.55;;;3.20;99.90;;;;;;4976849;28;20198;-21
2024/01/20 10:57:31;;;;;;;8.18;3.63;;;3.20;99.90;;;;;;4989550;28;20034;-22
2024/01/20 10:59:59;;;;;;;8.17;3.93;;;3.30;99.90;;;;;;4992420;28;20045;-21
2024/01/20 11:02:26;;;;;;;8.57;3.38;;;3.40;99.90;;;;;;4989438;28;20393;-21
2024/01/20 11:04:52;;;;;;;10.43;3.97;;;3.50;99.90;;;;;;4963902;28;20100;-21
2024/01/20 11:07:22;;;;;;;9.25;4.38;;;3.60;99.90;;;;;;4955382;28;20122;-20
2024/01/20 11:09:59;;;;;;;10.10;4.70;;;3.70;99.90;;;;;;4971931;28;20420;-21
2024/01/20 11:12:26;;;;;;;10.67;4.20;;;3.90;99.90;;;;;;4970705;28;20243;-21
2024/01/20 11:14:56;;;;;;;9.23;4.15;;;4.20;99.90;;;;;;4988345;28;20097;-22
2024/01/20 11:17:23;;;;;;;12.77;5.43;;;4.40;99.90;;;;;;4988817;28;20235;-22
2024/01/20 11:19:50;;;;;;;10.13;4.80;;;4.60;99.90;;;;;;4990432;28;20308;-21
2024/01/20 11:22:28;;;;;;;10.88;4.25;;;4.80;99.90;;;;;;4989193;28;20267;-20
2024/01/20 11:24:54;;;;;;;9.37;4.60;;;5.00;99.90;;;;;;4988223;28;20061;-20
2024/01/20 11:27:20;;;;;;;9.25;4.50;;;5.40;99.90;;;;;;4980492;28;20042;-20
2024/01/20 11:29:45;;;;;;;9.50;4.53;;;5.70;99.90;;;;;;4986948;28;20430;-22
2024/01/20 11:32:11;;;;;;;10.77;4.97;;;6.00;99.90;;;;;;4981465;28;20054;-22
2024/01/20 11:34:37;;;;;;;11.50;5.18;;;6.30;99.90;;;;;;4989212;28;20034;-22
2024/01/20 11:37:04;;;;;;;10.47;5.63;;;6.50;99.90;;;;;;4987603;28;20183;-22
2024/01/20 11:39:29;;;;;;;8.98;4.40;;;6.90;99.90;;;;;;4987817;28;20150;-18
2024/01/20 11:42:02;;;;;;;8.87;4.60;;;7.20;99.90;;;;;;4990115;28;20042;-19
2024/01/20 11:44:31;;;;;;;10.63;5.05;;;7.40;99.90;;;;;;4987006;28;20039;-19
2024/01/20 11:46:58;;;;;;;8.85;4.38;;;7.70;99.90;;;;;;4951603;28;20079;-19
2024/01/20 11:49:23;;;;;;;8.07;4.13;;;7.90;99.90;;;;;;4974773;28;20243;-19
2024/01/20 11:51:49;;;;;;;8.20;4.30;;;8.10;99.90;;;;;;4987215;28;20147;-18
2024/01/20 11:54:15;;;;;;;8.95;4.40;;;8.30;99.90;;;;;;4988258;28;20069;-19
2024/01/20 11:56:40;;;;;;;8.57;4.33;;;8.60;99.90;;;;;;4973071;28;20212;-20
2024/01/20 11:59:07;;;;;;;8.48;4.32;;;;;;;;;;4994015;28;20437;-21
2024/01/20 12:01:32;;;;;;;8.63;4.50;;;8.90;99.90;;;;;;4986309;28;20106;-21
2024/01/20 12:03:59;;;;;;;8.03;4.30;;;9.20;99.90;;;;;;4988794;28;20046;-25
2024/01/20 12:06:25;;;;;;;8.70;4.15;;;9.30;99.90;;;;;;4992610;28;20097;-21
2024/01/20 12:08:51;;;;;;;8.30;4.47;;;9.40;99.90;;;;;;4989381;28;20038;-22
2024/01/20 12:11:22;;;;;;;7.97;4.27;;;9.50;99.90;;;;;;4971314;28;20053;-21
2024/01/20 12:13:48;;;;;;;8.50;4.47;;;9.70;99.90;;;;;;4989746;28;20018;-22
2024/01/20 12:16:15;;;;;;;10.40;5.00;;;9.70;99.90;;;;;;4990371;28;20110;-20
2024/01/20 12:18:40;;;;;;;8.55;4.47;;;9.80;99.90;;;;;;4989760;28;20026;-21
2024/01/20 12:21:06;;;;;;;10.07;4.50;;;9.90;99.90;;;;;;4989945;28;20117;-20
2024/01/20 12:23:32;;;;;;;7.72;3.97;;;10.00;99.90;;;;;;4993862;28;20092;-21
2024/01/20 12:25:59;;;;;;;8.20;4.27;;;10.00;99.90;;;;;;4996511;28;20255;-20
2024/01/20 12:28:25;;;;;;;7.55;4.15;;;10.00;99.90;;;;;;4993770;28;20089;-21
2024/01/20 12:30:51;;;;;;;7.35;4.03;;;9.90;99.90;;;;;;4976042;28;20046;-20
2024/01/20 12:33:17;;;;;;;6.38;3.50;;;9.40;99.90;;;;;;4997001;28;20398;-21
2024/01/20 12:35:43;;;;;;;7.93;4.20;;;9.50;99.90;;;;;;4998793;28;20268;-20
2024/01/20 12:38:09;;;;;;;7.93;3.90;;;9.30;99.90;;;;;;4998988;28;20042;-20
2024/01/20 12:40:34;;;;;;;7.05;3.72;;;9.10;99.90;;;;;;4996587;28;20026;-23
2024/01/20 12:43:00;;;;;;;6.80;3.57;;;9.00;99.90;;;;;;4993735;28;20368;-22